• Join FlightAware (Why Join?)
  • Login
  • US Flag 
12:01AM EDT


 

Airport Tracker/Info


-or-


 

Live Flight TrackerFlight Track Log ✈ LXJ542 ✈ 04-Sep-2013 ✈ KBED - KFOK

Flight Track Log - Related Links

Times and Time Zones

All times are in EDT time to prevent confusion due to time zone crossing. See the LXJ542 flight status page for this flight to view local times or setup timezone preferences in your user account.

Time Position Orientation Groundspeed Altitude Reporting Facility
EDT Latitude Longitude Course Direction KTS MPH feet Rate Location/Type
09:58AM 42.4667 -71.3000 236° Southwest 169 194 1,200  Level KA90
09:59AM 42.4333 -71.3667 236° Southwest 218 251 3,100 2,760 Climbing KA90
10:00AM 42.3667 -71.3167 151° Southeast 289 333 7,400 4,020 Climbing KA90
10:01AM 42.2983 -71.2611 149° Southeast 322 371 10,700 1,920 Climbing Boston Center
10:02AM 42.2289 -71.1839 141° Southeast 364 419 11,000 120 Climbing Boston Center
10:03AM 42.1444 -71.0906 141° Southeast 386 444 11,000 780 Level Boston Center
10:04AM 42.0597 -70.9972 141° Southeast 391 450 12,600 1,860 Climbing Boston Center
10:05AM 41.9731 -70.8986 140° Southeast 401 461 14,800 2,340 Climbing Boston Center
10:06AM 41.8742 -70.8231 150° Southeast 406 467 17,300 2,460 Climbing Boston Center
10:07AM 41.7728 -70.8811 203° Southwest 363 418 19,700 1,320 Climbing Boston Center
10:08AM 41.6867 -70.9861 222° Southwest 368 423 20,000 -480 Climbing Boston Center
10:09AM 41.5983 -71.0828 219° Southwest 399 459 18,800 -1,620 Descending Boston Center
10:10AM 41.5428 -71.1475 221° Southwest 367 422 17,300 -2,220 Descending Boston Center
10:10AM 41.5036 -71.1900 219° Southwest 356 410 16,300 -1,920 Descending Boston Center
10:11AM 41.4419 -71.2631 222° Southwest 375 432 14,700 -1,980 Descending Boston Center
10:12AM 41.3678 -71.3503 221° Southwest 381 438 12,800 -2,040 Descending Boston Center
10:13AM 41.2831 -71.4483 221° Southwest 381 438 10,700 -1,440 Descending Boston Center
10:14AM 41.2275 -71.5319 229° Southwest 358 412 9,900 -1,200 Descending Boston Center
10:15AM 41.1889 -71.6319 243° Southwest 302 348 8,300 -1,740 Descending Boston Center
10:16AM 41.1600 -71.7094 244° Southwest 280 322 6,500 -1,140 Descending Boston Center
10:17AM 41.1231 -71.8064 243° Southwest 269 310 6,100 -300 Descending Boston Center
10:18AM 41.0964 -71.8783 244° Southwest 263 303 6,000 -60 Descending Boston Center
10:19AM 41.0614 -71.9611 241° Southwest 258 297 6,000  Level Boston Center
10:20AM 41.0242 -72.0467 240° Southwest 258 297 6,000 -60 Level Boston Center
10:21AM 40.9892 -72.1322 242° Southwest 263 303 5,900 -540 Descending Boston Center
10:22AM 40.9558 -72.2175 243° Southwest 263 303 5,000 -1,020 Descending Boston Center
10:23AM 40.9206 -72.2972 240° Southwest 263 303 3,900 -1,320 Descending Boston Center
10:24AM 40.8811 -72.3658 233° Southwest 250 288 2,500 -780 Descending Boston Center
10:26AM 40.8333 -72.4833 242° Southwest 196 226 1,800 -420 Descending New York TRACON
10:27AM 40.8000 -72.5500 237° Southwest 195 224 1,500 -600 Descending New York TRACON
10:28AM 40.8167 -72.6000 294° West 148 170 600 -900 Descending New York TRACON
10:30AM 40.8437 -72.6318 270° West  Level Estimated
10:37AM 40.8437 -72.6318 123° Southeast  Level Estimated
10:38AM 40.8437 -72.6318 123° Southeast  Level Estimated